Powhatan, Arkansas
Current Conditions -  °F | °C
As of 2:55 PM on Friday 19 Dec 2014 (Local Time) from KARG Reporting Station
Overcast Overcast  
Wind Chill: 36°   Ceiling: 6000
Heat Index: 41°   Visibility: 7mi
Dew Point: 32°   Wind: 7mph
Humidity: 70%   Direction: 30°NNE
Pressure: 30.24"   Gusts: NA
Location:  36.08°N, 91.12°W
Report Text: KARG 192055Z AUTO 03006KT 7SM OVC060 05/00 A3024 RMK AO1 57020
Loading
Personal Weather Stations






























Interactive Weather Map New forecast layout! Learn more

10-Day Weather Forecast

Advertisements
Track Severe Weather on mobile